createdAt,value
2022-08-08T00:02:43.275Z,10.50
2022-08-08T00:06:03.831Z,10.35
2022-08-08T00:09:16.176Z,10.43
2022-08-08T00:12:25.478Z,9.52
2022-08-08T00:15:57.300Z,10.35
2022-08-08T00:19:16.756Z,10.18
2022-08-08T00:22:26.369Z,10.40
2022-08-08T00:25:54.172Z,11.30
2022-08-08T00:29:02.856Z,10.85
2022-08-08T00:32:38.749Z,10.60
2022-08-08T00:35:50.077Z,12.48
2022-08-08T00:41:09.556Z,11.07
2022-08-08T00:42:47.454Z,11.27
2022-08-08T00:46:16.520Z,10.05
2022-08-08T00:49:32.202Z,11.15
2022-08-08T00:52:43.965Z,11.13
2022-08-08T00:56:02.943Z,11.05
2022-08-08T00:59:43.840Z,10.55
2022-08-08T01:03:59.896Z,11.00
2022-08-08T01:06:49.069Z,9.98
2022-08-08T01:10:06.263Z,11.32
2022-08-08T01:13:52.851Z,10.45
2022-08-08T01:17:09.132Z,10.77
2022-08-08T01:20:36.309Z,10.70
2022-08-08T01:24:06.238Z,11.07
2022-08-08T01:27:32.971Z,11.95
2022-08-08T01:32:06.821Z,11.73
2022-08-08T01:34:54.042Z,11.13
2022-08-08T01:37:59.229Z,12.20
2022-08-08T01:41:34.378Z,10.98
2022-08-08T01:44:54.849Z,10.80
2022-08-08T01:48:33.523Z,12.15
2022-08-08T01:53:10.413Z,12.63
2022-08-08T01:56:27.108Z,12.15
2022-08-08T02:00:01.955Z,12.65
2022-08-08T02:03:50.551Z,12.52
2022-08-08T02:07:04.285Z,12.23
2022-08-08T02:10:14.863Z,11.70
2022-08-08T02:13:53.108Z,12.15
2022-08-08T02:17:20.174Z,11.52
2022-08-08T02:21:03.134Z,10.90
2022-08-08T02:24:16.646Z,11.85
2022-08-08T02:27:47.763Z,11.85
2022-08-08T02:31:04.631Z,11.88
2022-08-08T02:34:09.836Z,11.25
2022-08-08T02:37:52.146Z,11.63
2022-08-08T02:42:04.317Z,12.13
2022-08-08T02:44:52.881Z,11.80
2022-08-08T02:48:26.225Z,11.07
2022-08-08T02:51:46.341Z,11.35
2022-08-08T02:55:37.322Z,10.88
2022-08-08T02:59:25.757Z,11.05
2022-08-08T03:02:38.006Z,9.93
2022-08-08T03:06:08.047Z,10.38
2022-08-08T03:09:33.745Z,10.57
2022-08-08T03:13:33.473Z,10.98
2022-08-08T03:20:08.266Z,11.73
2022-08-08T03:23:12.606Z,13.57
2022-08-08T03:26:42.150Z,12.80
2022-08-08T03:29:58.224Z,13.30
2022-08-08T03:33:55.766Z,13.45
2022-08-08T03:36:42.497Z,12.80
2022-08-08T03:39:52.069Z,13.10
2022-08-08T03:43:16.876Z,11.52
2022-08-08T03:46:22.077Z,12.85
2022-08-08T03:49:57.388Z,12.30
2022-08-08T03:52:49.710Z,12.20
2022-08-08T03:55:56.043Z,12.57
2022-08-08T03:58:59.257Z,11.48
2022-08-08T04:02:22.927Z,11.40
2022-08-08T04:05:32.924Z,10.82
2022-08-08T04:08:37.889Z,10.65
2022-08-08T04:11:58.579Z,10.57
2022-08-08T04:15:02.451Z,10.70
2022-08-08T04:18:05.310Z,11.38
2022-08-08T04:21:07.297Z,11.05
2022-08-08T04:28:02.507Z,10.30
2022-08-08T04:30:55.269Z,10.98
2022-08-08T04:33:59.481Z,11.10
2022-08-08T04:37:03.987Z,11.25
2022-08-08T04:40:10.792Z,9.75
2022-08-08T04:43:14.813Z,10.68
2022-08-08T04:46:18.653Z,10.98
2022-08-08T04:49:20.704Z,11.63
2022-08-08T04:52:33.514Z,11.30
2022-08-08T04:55:47.777Z,10.65
2022-08-08T04:58:58.334Z,10.32
2022-08-08T05:02:01.005Z,10.82
2022-08-08T05:05:03.140Z,9.43
2022-08-08T05:08:06.853Z,9.60
2022-08-08T05:11:22.827Z,10.00
2022-08-08T05:14:26.776Z,10.55
2022-08-08T05:17:53.711Z,9.25
2022-08-08T05:20:54.321Z,9.50
2022-08-08T05:24:04.134Z,9.70
2022-08-08T05:27:10.716Z,8.55
2022-08-08T05:30:12.844Z,10.48
2022-08-08T05:33:16.943Z,9.30
2022-08-08T05:36:25.744Z,9.05
2022-08-08T05:39:35.013Z,8.77
2022-08-08T05:42:42.394Z,9.60
2022-08-08T05:45:53.226Z,8.88
2022-08-08T05:48:58.263Z,8.82
2022-08-08T05:52:03.277Z,9.40
2022-08-08T05:55:10.130Z,9.32
2022-08-08T05:58:17.650Z,8.95
2022-08-08T06:01:55.822Z,8.98
2022-08-08T06:04:47.722Z,8.32
2022-08-08T06:08:02.082Z,9.43
2022-08-08T06:11:05.771Z,8.82
2022-08-08T06:14:12.958Z,8.35
2022-08-08T06:17:19.658Z,7.68
2022-08-08T06:20:21.827Z,7.90
2022-08-08T06:24:01.830Z,8.30
2022-08-08T06:27:04.754Z,8.38
2022-08-08T06:30:19.814Z,8.27
2022-08-08T06:33:37.354Z,8.25
2022-08-08T06:37:00.929Z,9.13
2022-08-08T06:40:25.774Z,7.70
2022-08-08T06:43:35.897Z,8.43
2022-08-08T06:46:38.608Z,8.00
2022-08-08T06:49:56.438Z,8.75
2022-08-08T06:53:10.007Z,9.40
2022-08-08T06:56:16.859Z,9.10
2022-08-08T06:59:18.908Z,9.90
2022-08-08T07:02:29.471Z,10.23
2022-08-08T07:05:40.763Z,8.75
2022-08-08T07:08:48.313Z,8.10
2022-08-08T07:11:55.076Z,9.55
2022-08-08T07:15:23.341Z,9.90
2022-08-08T07:18:49.231Z,9.65
2022-08-08T07:22:18.678Z,10.00
2022-08-08T07:25:24.063Z,9.07
2022-08-08T07:28:36.677Z,9.77
2022-08-08T07:31:41.345Z,9.45
2022-08-08T07:34:59.593Z,9.18
2022-08-08T07:38:10.566Z,8.77
2022-08-08T07:41:25.416Z,9.68
2022-08-08T07:44:40.815Z,9.25
2022-08-08T07:47:49.126Z,9.38
2022-08-08T07:50:58.738Z,9.35
2022-08-08T07:54:38.407Z,9.30
2022-08-08T07:57:49.496Z,9.30
2022-08-08T08:00:57.303Z,8.80
2022-08-08T08:04:13.951Z,9.65
2022-08-08T08:07:19.214Z,9.13
2022-08-08T08:10:30.682Z,8.85
2022-08-08T08:14:07.798Z,7.97
2022-08-08T08:17:12.356Z,8.52
2022-08-08T08:20:18.283Z,9.25
2022-08-08T08:23:20.372Z,8.18
2022-08-08T08:26:29.471Z,8.77
2022-08-08T08:29:31.904Z,9.10
2022-08-08T08:32:35.910Z,7.53
2022-08-08T08:36:19.922Z,7.75
2022-08-08T08:39:07.570Z,7.13
2022-08-08T08:42:31.297Z,7.65
2022-08-08T08:45:38.842Z,6.70
2022-08-08T08:48:49.607Z,7.20
2022-08-08T08:51:52.970Z,6.43
2022-08-08T08:54:59.947Z,6.50
2022-08-08T08:58:04.249Z,7.15
2022-08-08T09:01:10.302Z,6.78
2022-08-08T09:04:32.017Z,6.88
2022-08-08T09:07:52.280Z,7.00
2022-08-08T09:11:07.560Z,6.35
2022-08-08T09:14:13.004Z,6.18
2022-08-08T09:17:19.158Z,5.85
2022-08-08T09:21:57.187Z,6.10
2022-08-08T09:23:44.225Z,5.77
2022-08-08T09:26:58.931Z,5.03
2022-08-08T09:30:14.675Z,5.53
2022-08-08T09:34:15.115Z,5.80
2022-08-08T09:36:51.744Z,6.00
2022-08-08T09:40:11.966Z,5.90
2022-08-08T09:44:04.174Z,5.65
2022-08-08T09:46:57.642Z,6.35
2022-08-08T09:50:19.733Z,5.75
2022-08-08T09:53:56.578Z,5.40
2022-08-08T09:57:02.673Z,5.55
2022-08-08T10:03:40.101Z,5.25
2022-08-08T10:06:53.038Z,5.18
2022-08-08T10:10:00.119Z,5.00
2022-08-08T10:13:32.287Z,5.03
2022-08-08T10:52:28.330Z,6.20
2022-08-08T10:55:40.876Z,5.95
2022-08-08T10:58:47.467Z,6.30
2022-08-08T11:01:57.048Z,6.80
2022-08-08T11:05:05.313Z,6.03
2022-08-08T11:08:30.837Z,6.53
2022-08-08T11:12:05.564Z,7.18
2022-08-08T11:15:07.080Z,6.82
2022-08-08T11:21:19.607Z,7.10
2022-08-08T11:24:25.259Z,6.05
2022-08-08T11:27:37.285Z,6.22
2022-08-08T11:30:50.405Z,6.80
2022-08-08T11:34:01.642Z,6.90
2022-08-08T11:37:14.738Z,6.40
2022-08-08T11:40:22.509Z,7.00
2022-08-08T11:43:39.573Z,6.22
2022-08-08T11:46:44.399Z,7.03
2022-08-08T11:49:49.292Z,6.72
2022-08-08T11:52:52.433Z,6.88
2022-08-08T11:55:55.381Z,7.25
2022-08-08T11:59:09.936Z,6.68
2022-08-08T12:02:31.056Z,6.75
2022-08-08T12:05:36.258Z,6.85
2022-08-08T12:08:38.460Z,7.10
2022-08-08T12:11:43.156Z,6.97
2022-08-08T12:15:00.247Z,6.28
2022-08-08T12:18:20.814Z,6.88
2022-08-08T12:21:59.590Z,6.47
2022-08-08T12:24:56.758Z,6.57
2022-08-08T12:28:16.143Z,6.57
2022-08-08T12:31:18.623Z,5.28
2022-08-08T12:34:43.279Z,5.47
2022-08-08T12:38:02.174Z,5.07
2022-08-08T12:41:18.183Z,5.50
2022-08-08T12:44:36.632Z,6.38
2022-08-08T12:48:04.905Z,5.95
2022-08-08T12:51:03.652Z,5.60
2022-08-08T12:54:24.380Z,5.88
2022-08-08T12:57:29.048Z,6.03
2022-08-08T13:00:39.158Z,5.90
2022-08-08T13:03:52.081Z,6.80
2022-08-08T13:06:57.328Z,5.18
2022-08-08T13:10:10.656Z,5.50
2022-08-08T13:13:27.754Z,6.85
2022-08-08T13:16:34.164Z,6.43
2022-08-08T13:19:49.646Z,6.55
2022-08-08T13:23:08.327Z,5.63
2022-08-08T13:26:14.677Z,5.93
2022-08-08T13:32:26.755Z,6.82
2022-08-08T13:35:38.181Z,6.70
2022-08-08T13:38:41.412Z,6.35
2022-08-08T13:41:53.726Z,6.80
2022-08-08T13:44:59.452Z,6.55
2022-08-08T13:48:03.960Z,6.60
2022-08-08T13:51:33.465Z,7.68
2022-08-08T13:54:35.131Z,7.93
2022-08-08T13:58:06.264Z,8.68
2022-08-08T14:01:18.237Z,8.60
2022-08-08T14:04:24.686Z,7.43
2022-08-08T14:07:32.805Z,7.13
2022-08-08T14:10:37.396Z,5.75
2022-08-08T14:13:59.676Z,7.45
2022-08-08T14:17:11.830Z,7.57
2022-08-08T14:20:56.476Z,6.97
2022-08-08T14:24:06.788Z,7.32
2022-08-08T14:27:27.083Z,7.10
2022-08-08T14:30:35.218Z,7.68
2022-08-08T14:33:39.321Z,7.35
2022-08-08T14:36:51.760Z,7.82
2022-08-08T14:40:06.401Z,6.68
2022-08-08T14:43:31.287Z,6.43
2022-08-08T14:46:33.056Z,6.95
2022-08-08T14:49:37.724Z,7.43
2022-08-08T14:53:13.510Z,6.68
2022-08-08T14:56:16.447Z,6.50
2022-08-08T14:59:22.126Z,6.63
2022-08-08T15:02:58.798Z,5.95
2022-08-08T15:06:03.363Z,6.63
2022-08-08T15:12:09.364Z,8.65
2022-08-08T15:15:18.656Z,8.68
2022-08-08T15:18:40.071Z,7.38
2022-08-08T15:21:46.601Z,7.03
2022-08-08T15:24:50.195Z,6.13
2022-08-08T15:28:04.345Z,5.68
2022-08-08T15:31:25.696Z,5.70
2022-08-08T15:34:37.544Z,6.30
2022-08-08T15:37:40.823Z,5.53
2022-08-08T15:40:44.346Z,6.00
2022-08-08T15:44:00.583Z,5.63
2022-08-08T15:47:03.762Z,5.68
2022-08-08T15:50:16.803Z,5.43
2022-08-08T15:53:23.837Z,4.72
2022-08-08T15:56:28.119Z,4.95
2022-08-08T16:00:05.805Z,5.03
2022-08-08T16:02:53.250Z,4.60
2022-08-08T16:06:01.615Z,5.45
2022-08-08T16:13:03.639Z,4.70
2022-08-08T16:13:14.179Z,4.85
2022-08-08T16:15:59.235Z,4.90
2022-08-08T16:19:10.964Z,4.70
2022-08-08T16:22:30.239Z,4.82
2022-08-08T16:25:46.132Z,5.28
2022-08-08T16:28:55.658Z,4.95
2022-08-08T16:31:57.720Z,5.37
2022-08-08T16:35:03.313Z,5.40
2022-08-08T16:38:09.719Z,5.40
2022-08-08T16:41:18.517Z,5.15
2022-08-08T16:44:28.048Z,5.43
2022-08-08T16:47:41.783Z,5.30
2022-08-08T16:50:44.680Z,5.60
2022-08-08T16:55:00.531Z,5.37
2022-08-08T16:57:23.436Z,5.68
2022-08-08T17:00:30.407Z,5.90
2022-08-08T17:04:00.520Z,6.15
2022-08-08T17:06:54.432Z,6.30
2022-08-08T17:09:56.361Z,5.75
2022-08-08T17:12:59.973Z,5.82
2022-08-08T17:16:02.451Z,6.32
2022-08-08T17:19:04.518Z,6.30
2022-08-08T17:22:06.574Z,5.80
2022-08-08T17:25:11.721Z,5.85
2022-08-08T17:28:13.958Z,6.88
2022-08-08T17:31:44.451Z,6.90
2022-08-08T17:35:27.686Z,6.50
2022-08-08T17:38:02.008Z,7.03
2022-08-08T17:41:05.951Z,7.55
2022-08-08T17:44:11.037Z,7.80
2022-08-08T17:47:23.272Z,7.43
2022-08-08T17:50:26.986Z,7.95
2022-08-08T17:53:42.630Z,7.47
2022-08-08T17:56:45.510Z,8.07
2022-08-08T17:59:48.233Z,7.43
2022-08-08T18:03:07.334Z,7.43
2022-08-08T18:06:22.026Z,7.93
2022-08-08T18:09:37.941Z,7.85
2022-08-08T18:12:44.356Z,7.63
2022-08-08T18:15:48.147Z,8.07
2022-08-08T18:19:02.600Z,7.68
2022-08-08T18:22:05.536Z,7.70
2022-08-08T18:25:07.874Z,8.07
2022-08-08T18:28:13.151Z,7.70
2022-08-08T18:31:15.763Z,8.52
2022-08-08T18:34:27.535Z,8.40
2022-08-08T18:37:34.046Z,8.20
2022-08-08T18:40:50.897Z,8.40
2022-08-08T18:43:56.167Z,8.70
2022-08-08T18:46:59.775Z,8.25
2022-08-08T18:50:03.039Z,8.88
2022-08-08T18:53:05.161Z,8.15
2022-08-08T18:56:07.325Z,8.10
2022-08-08T18:59:11.125Z,8.95
2022-08-08T19:02:27.876Z,9.13
2022-08-08T19:05:37.794Z,9.18
2022-08-08T19:08:41.462Z,8.85
2022-08-08T19:11:47.070Z,9.88
2022-08-08T19:14:49.009Z,9.43
2022-08-08T19:18:32.979Z,8.80
2022-08-08T19:21:29.180Z,10.88
2022-08-08T19:24:38.147Z,9.27
2022-08-08T19:27:57.282Z,9.13
2022-08-08T19:31:07.287Z,9.63
2022-08-08T19:34:35.786Z,9.60
2022-08-08T19:37:43.403Z,11.07
2022-08-08T19:40:55.917Z,9.13
2022-08-08T19:44:03.356Z,9.90
2022-08-08T19:47:06.496Z,9.85
2022-08-08T19:50:09.453Z,9.95
2022-08-08T19:53:51.420Z,10.00
2022-08-08T19:56:41.519Z,10.95
2022-08-08T19:59:50.690Z,12.43
2022-08-08T20:02:53.441Z,11.57
2022-08-08T20:06:15.394Z,12.18
2022-08-08T20:09:22.622Z,12.07
2022-08-08T20:12:32.854Z,11.63
2022-08-08T20:15:52.603Z,12.52
2022-08-08T20:18:59.290Z,11.45
2022-08-08T20:22:05.208Z,11.68
2022-08-08T20:25:20.200Z,11.68
2022-08-08T20:28:28.522Z,10.95
2022-08-08T20:32:02.829Z,12.10
2022-08-08T20:35:01.067Z,12.55
2022-08-08T20:38:04.369Z,11.95
2022-08-08T20:41:12.135Z,12.82
2022-08-08T20:44:20.749Z,12.55
2022-08-08T20:47:28.862Z,12.98
2022-08-08T20:50:38.249Z,12.98
2022-08-08T20:53:59.233Z,13.57
2022-08-08T20:57:05.706Z,13.52
2022-08-08T21:00:19.562Z,13.70
2022-08-08T21:03:21.737Z,13.45
2022-08-08T21:06:53.207Z,14.25
2022-08-08T21:10:07.904Z,13.85
2022-08-08T21:13:11.221Z,14.35
2022-08-08T21:16:20.442Z,14.83
2022-08-08T21:19:44.033Z,14.70
2022-08-08T21:22:48.614Z,14.63
2022-08-08T21:29:01.034Z,14.35
2022-08-08T21:32:07.736Z,14.40
2022-08-08T21:36:19.065Z,15.27
2022-08-08T21:38:38.364Z,16.17
2022-08-08T21:41:42.982Z,15.63
2022-08-08T21:44:58.515Z,16.88
2022-08-08T21:48:19.501Z,15.23
2022-08-08T21:54:27.332Z,15.80
2022-08-08T21:54:54.128Z,15.10
2022-08-08T21:58:07.595Z,16.05
2022-08-08T22:01:22.427Z,15.98
2022-08-08T22:04:31.967Z,15.23
2022-08-08T22:07:40.936Z,15.50
2022-08-08T22:10:43.172Z,15.75
2022-08-08T22:13:49.959Z,15.77
2022-08-08T22:16:53.560Z,16.27
2022-08-08T22:20:11.337Z,16.45
2022-08-08T22:27:01.488Z,15.05
2022-08-08T22:30:02.767Z,14.85
2022-08-08T22:33:08.961Z,15.60
2022-08-08T22:36:34.374Z,15.95
2022-08-08T22:39:45.608Z,15.37
2022-08-08T22:42:48.442Z,16.50
2022-08-08T22:45:52.653Z,16.92
2022-08-08T22:48:54.895Z,15.93
2022-08-08T22:51:57.588Z,15.05
2022-08-08T22:55:04.692Z,16.08
2022-08-08T22:58:07.461Z,15.35
2022-08-08T23:02:00.961Z,16.30
2022-08-08T23:07:52.196Z,15.82
2022-08-08T23:11:06.297Z,16.00
2022-08-08T23:14:15.728Z,16.75
2022-08-08T23:17:20.993Z,16.42
2022-08-08T23:20:27.333Z,16.85
2022-08-08T23:23:48.763Z,17.45
2022-08-08T23:26:57.840Z,17.00
2022-08-08T23:29:59.996Z,16.88
2022-08-08T23:33:01.917Z,16.40
2022-08-08T23:36:07.879Z,16.23
2022-08-08T23:39:11.101Z,18.05
2022-08-08T23:42:13.372Z,18.95
2022-08-08T23:45:15.319Z,18.75
2022-08-08T23:49:02.865Z,18.92
2022-08-08T23:52:03.656Z,17.73
2022-08-08T23:55:13.885Z,18.38
2022-08-08T23:58:37.702Z,18.73
